Time;durP1;ratioP1;P1;durP2;ratioP2;P2;SDS_P1;SDS_P2;PMS_P1;PMS_P2;Temp;Humidity;BMP_temperature;BMP_pressure;BME280_temperature;BME280_humidity;BME280_pressure;Samples;Min_cycle;Max_cycle;Signal;HPM_P1;HPM_P2
2023/01/02 04:10:36;;;;;;;5.65;2.42;;;;;;;6.52;71.33;101171.41;10209874;29;20063;-90
2023/01/02 04:48:27;;;;;;;2.20;1.40;;;;;;;9.31;67.56;101495.03;9909735;30;20047;-93
2023/01/02 05:13:30;;;;;;;2.13;1.15;;;;;;;7.95;65.82;101147.31;10172365;29;20056;-93
2023/01/02 05:19:06;;;;;;;3.77;1.73;;;;;;;8.23;65.32;101182.84;10177410;29;20056;-91
2023/01/02 05:25:00;;;;;;;;;;;;;;;;;;;;;
2023/01/02 05:37:05;;;;;;;3.70;1.08;;;;;;;10.69;63.33;101488.13;10164306;29;20153;-91
2023/01/02 05:54:18;;;;;;;2.33;1.08;;;;;;;10.10;60.01;101295.22;10217139;29;20047;-88
2023/01/02 05:59:19;;;;;;;2.65;1.25;;;;;;;10.77;61.67;101368.69;10432305;23;20070;-84
2023/01/02 06:04:20;;;;;;;2.38;1.20;;;;;;;11.60;61.72;101504.44;10268599;28;20058;-90
2023/01/02 06:09:20;;;;;;;3.47;1.42;;;;;;;11.68;61.28;101501.06;10272408;28;20128;-82
2023/01/02 06:14:22;;;;;;;8.48;1.40;;;;;;;11.85;61.42;101511.78;10250352;28;20113;-81
2023/01/02 06:19:23;;;;;;;3.53;1.13;;;;;;;11.54;61.36;101443.81;10291338;28;20137;-76
2023/01/02 06:24:24;;;;;;;3.80;1.67;;;;;;;11.31;61.40;101433.56;10296017;28;20149;-81
2023/01/02 06:29:25;;;;;;;3.30;1.35;;;;;;;11.73;61.55;101520.94;10246111;28;20082;-79
2023/01/02 06:34:25;;;;;;;2.88;1.40;;;;;;;11.61;61.94;101536.25;10232278;29;20055;-75
2023/01/02 06:39:26;;;;;;;3.30;1.40;;;;;;;10.67;61.88;101392.59;10228861;29;20051;-82
2023/01/02 06:44:27;;;;;;;2.90;1.30;;;;;;;11.31;61.87;101513.38;10225791;29;20083;-83
2023/01/02 06:49:28;;;;;;;8.57;1.48;;;;;;;11.49;61.89;101528.59;10232761;29;20103;-88
2023/01/02 06:54:28;;;;;;;2.83;1.60;;;;;;;11.59;61.79;101495.63;10214356;29;20059;-79
2023/01/02 06:59:29;;;;;;;2.60;1.15;;;;;;;12.34;60.36;101516.84;10209420;29;20142;-80
2023/01/02 07:04:30;;;;;;;3.15;1.75;;;;;;;12.54;59.52;101474.91;10199016;29;20052;-79
2023/01/02 07:09:31;;;;;;;5.28;1.73;;;;;;;12.52;58.06;101394.25;10207525;29;20063;-82
2023/01/02 07:14:32;;;;;;;3.60;1.45;;;;;;;12.77;57.86;101408.56;10198136;29;20059;-76
2023/01/02 07:19:33;;;;;;;4.22;1.60;;;;;;;13.16;56.43;101422.34;10191578;29;20056;-83
2023/01/02 07:24:33;;;;;;;3.33;1.90;;;;;;;12.59;56.73;101291.31;10194017;29;20083;-80
2023/01/02 07:29:34;;;;;;;3.35;1.60;;;;;;;13.40;56.15;101412.78;10209512;29;20052;-76
2023/01/02 07:34:35;;;;;;;4.65;1.80;;;;;;;13.53;56.28;101447.91;10212474;29;20424;-78
2023/01/02 07:39:36;;;;;;;2.72;1.60;;;;;;;13.93;56.50;101479.25;10185785;29;20087;-78
2023/01/02 07:44:37;;;;;;;5.80;1.70;;;;;;;13.06;56.05;101322.06;10212878;29;20063;-78
2023/01/02 07:49:37;;;;;;;6.82;1.80;;;;;;;13.73;55.69;101386.22;10194785;29;20520;-82
2023/01/02 07:54:38;;;;;;;3.90;1.98;;;;;;;13.58;55.33;101330.78;10210860;29;20123;-79
2023/01/02 07:59:39;;;;;;;2.85;1.80;;;;;;;14.08;54.81;101418.00;10210834;29;20067;-80
2023/01/02 08:04:40;;;;;;;4.03;1.90;;;;;;;13.23;54.79;101281.13;10211434;29;20535;-74
2023/01/02 08:09:41;;;;;;;3.50;2.10;;;;;;;14.06;54.45;101389.78;10210696;29;20062;-79
2023/01/02 08:14:42;;;;;;;5.20;1.88;;;;;;;14.47;54.23;101433.41;10209424;29;20146;-76
2023/01/02 08:19:43;;;;;;;5.35;1.67;;;;;;;14.04;53.66;101339.19;10204330;29;20056;-77
2023/01/02 08:24:44;;;;;;;4.65;1.90;;;;;;;14.71;54.29;101421.06;10207400;29;20055;-82
2023/01/02 08:29:45;;;;;;;3.65;1.50;;;;;;;14.68;54.76;101397.34;10193179;29;20060;-78
2023/01/02 08:34:48;;;;;;;14.35;3.67;;;;;;;14.56;53.53;101324.66;10184783;29;20080;-76
2023/01/02 08:39:54;;;;;;;6.97;1.93;;;;;;;15.36;53.14;101402.19;10201499;29;20090;-79
2023/01/02 08:44:55;;;;;;;6.63;2.10;;;;;;;14.87;52.88;101291.78;10175101;29;20496;-77
2023/01/02 08:49:55;;;;;;;5.07;1.73;;;;;;;15.34;52.62;101350.63;10193323;29;20059;-79
2023/01/02 08:54:56;;;;;;;4.50;1.88;;;;;;;14.81;51.42;101238.00;10211076;29;20052;-80
2023/01/02 08:59:57;;;;;;;5.28;1.95;;;;;;;15.47;51.87;101334.03;10211110;29;20059;-79
2023/01/02 09:04:58;;;;;;;4.57;1.92;;;;;;;14.70;51.17;101225.00;10210860;29;20452;-78
2023/01/02 09:09:59;;;;;;;2.55;1.30;;;;;;;15.07;51.11;101266.28;10210276;29;20823;-78
2023/01/02 09:15:00;;;;;;;3.90;1.70;;;;;;;15.43;51.42;101341.56;10211450;29;20389;-77
2023/01/02 09:20:00;;;;;;;2.83;1.30;;;;;;;15.57;50.74;101339.97;10210811;29;20043;-77
2023/01/02 09:25:01;;;;;;;4.85;1.40;;;;;;;15.24;51.24;101264.38;10211659;29;20520;-76
2023/01/02 09:30:02;;;;;;;3.80;1.48;;;;;;;16.01;50.34;101360.84;10217472;29;20496;-77
2023/01/02 09:35:03;;;;;;;2.33;1.33;;;;;;;15.92;50.64;101327.91;10217911;29;20074;-78
2023/01/02 09:40:05;;;;;;;6.07;1.30;;;;;;;15.49;49.80;101249.81;10201092;29;20083;-77
2023/01/02 09:45:08;;;;;;;2.67;1.40;;;;;;;15.90;50.12;101303.13;10190615;29;20420;-79
2023/01/02 09:50:17;;;;;;;2.47;1.33;;;;;;;16.24;50.05;101336.66;10213244;29;20131;-78
2023/01/02 09:55:45;;;;;;;3.00;1.45;;;;;;;15.68;49.11;101231.66;10215873;29;20138;-78
2023/01/02 10:00:49;;;;;;;4.10;1.50;;;;;;;16.09;49.22;101304.47;10216681;29;20146;-77
2023/01/02 10:06:05;;;;;;;;;;;;;;;16.46;49.15;101334.16;10215537;29;20050;-77
2023/01/02 10:11:15;;;;;;;2.38;1.38;;;;;;;16.27;49.17;101327.44;10216131;29;19925;-77
2023/01/02 10:16:21;;;;;;;3.42;1.60;;;;;;;16.24;48.91;101325.94;10216346;29;20048;-78
2023/01/02 10:21:33;;;;;;;3.78;1.80;;;;;;;16.32;49.09;101291.03;10215319;29;20048;-78
2023/01/02 10:26:40;;;;;;;3.58;1.60;;;;;;;15.42;48.54;101155.16;10215379;29;20051;-74
2023/01/02 10:31:48;;;;;;;4.72;1.95;;;;;;;16.36;48.69;101295.03;10197942;29;20110;-77
2023/01/02 10:36:50;;;;;;;4.47;2.08;;;;;;;15.94;48.52;101250.84;10214725;29;20058;-74
2023/01/02 10:41:57;;;;;;;3.97;1.70;;;;;;;16.06;48.45;101269.97;10214330;29;20067;-78
2023/01/02 10:47:10;;;;;;;5.35;1.90;;;;;;;15.90;48.60;101229.94;10212495;29;20052;-76
2023/01/02 10:52:19;;;;;;;3.58;1.60;;;;;;;15.88;48.42;101216.72;10214357;29;20142;-76
2023/01/02 10:57:39;;;;;;;3.67;1.80;;;;;;;16.11;48.27;101256.88;10213523;29;20054;-75
2023/01/02 11:02:40;;;;;;;5.07;2.15;;;;;;;15.88;48.73;101213.19;10213800;29;20098;-77
2023/01/02 11:07:47;;;;;;;4.95;1.90;;;;;;;16.35;48.40;101285.28;10214716;29;20095;-75
2023/01/02 11:12:48;;;;;;;3.20;1.80;;;;;;;16.10;49.05;101241.00;10213526;29;20087;-76
2023/01/02 11:17:49;;;;;;;3.30;1.90;;;;;;;16.45;49.30;101301.09;10214176;29;20392;-76
2023/01/02 11:22:50;;;;;;;3.00;1.73;;;;;;;15.70;49.52;101184.91;10212857;29;20062;-76
2023/01/02 11:27:55;;;;;;;28.17;24.45;;;;;;;16.35;49.47;101287.97;10213528;29;20175;-76
2023/01/02 11:33:14;;;;;;;24.77;18.45;;;;;;;16.04;49.30;101236.34;10196314;29;20055;-74
2023/01/02 11:38:24;;;;;;;5.75;3.95;;;;;;;16.13;49.39;101262.06;10213244;29;20055;-76
2023/01/02 11:43:47;;;;;;;2.80;1.50;;;;;;;15.48;49.33;101167.81;10212894;29;20110;-76
2023/01/02 11:48:52;;;;;;;5.90;3.13;;;;;;;16.12;49.72;101263.06;10212056;29;20508;-76
2023/01/02 11:53:53;;;;;;;5.32;2.72;;;;;;;16.00;49.95;101249.25;10212316;29;20048;-75
2023/01/02 11:59:00;;;;;;;3.65;2.10;;;;;;;16.33;49.72;101321.34;10212638;29;20126;-73
2023/01/02 12:04:01;;;;;;;5.25;2.40;;;;;;;16.03;50.10;101288.28;10194940;29;20051;-75
2023/01/02 12:09:05;;;;;;;3.38;1.50;;;;;;;16.24;50.39;101331.31;10211738;29;20048;-76
2023/01/02 12:14:21;;;;;;;2.63;1.50;;;;;;;16.22;50.74;101335.22;10211413;29;20056;-77
2023/01/02 12:19:39;;;;;;;3.25;1.23;;;;;;;15.84;51.34;101282.41;10211969;29;20056;-78
2023/01/02 12:25:22;;;;;;;4.28;1.33;;;;;;;16.08;51.46;101337.66;10211310;29;20048;-79
2023/01/02 12:30:23;;;;;;;3.22;1.42;;;;;;;15.67;51.70;101291.53;10211288;29;20519;-79
2023/01/02 12:35:24;;;;;;;1.70;0.80;;;;;;;15.30;52.22;101250.28;10209171;29;20047;-78
2023/01/02 12:41:01;;;;;;;6.22;1.10;;;;;;;15.72;52.12;101338.25;10193838;29;20056;-78
2023/01/02 12:46:43;;;;;;;3.72;1.33;;;;;;;15.42;52.69;101305.09;10201719;29;20059;-78
2023/01/02 12:51:58;;;;;;;8.80;1.20;;;;;;;15.42;53.07;101342.56;10210311;29;20063;-79
2023/01/02 12:57:13;;;;;;;2.22;1.20;;;;;;;15.27;53.29;101338.97;10211617;29;20094;-83
2023/01/02 13:02:30;;;;;;;2.38;1.05;;;;;;;15.09;53.94;101338.38;10218414;29;20146;-78
2023/01/02 13:07:39;;;;;;;2.15;1.10;;;;;;;15.05;53.99;101349.44;10218646;29;20058;-79
2023/01/02 13:12:40;;;;;;;4.95;1.00;;;;;;;14.07;54.25;101210.63;10216649;29;20530;-79
2023/01/02 13:18:02;;;;;;;3.42;1.20;;;;;;;14.50;54.35;101302.06;10218187;29;20056;-80
2023/01/02 13:23:21;;;;;;;4.25;1.10;;;;;;;14.15;54.65;101261.38;10217963;29;20075;-78
2023/01/02 13:28:22;;;;;;;3.85;1.38;;;;;;;14.08;54.98;101278.22;10218162;29;20066;-78
2023/01/02 13:33:35;;;;;;;2.83;1.10;;;;;;;14.39;55.17;101355.91;10217708;29;20075;-78
2023/01/02 13:38:36;;;;;;;4.20;1.20;;;;;;;13.90;55.46;101297.94;10217330;29;20055;-79
2023/01/02 13:43:38;;;;;;;2.72;1.00;;;;;;;13.67;55.57;101281.75;10217477;29;20043;-77
2023/01/02 13:48:46;;;;;;;4.68;1.60;;;;;;;13.61;56.08;101303.78;10217127;29;20047;-78
2023/01/02 13:53:49;;;;;;;4.55;1.88;;;;;;;13.83;56.09;101363.72;10215295;29;20116;-79
2023/01/02 13:58:58;;;;;;;3.00;1.52;;;;;;;13.27;56.83;101292.34;10216781;29;20059;-78
2023/01/02 14:04:18;;;;;;;3.30;1.52;;;;;;;13.69;56.59;101370.50;10216377;29;20058;-78
2023/01/02 14:09:21;;;;;;;3.55;1.50;;;;;;;13.56;56.75;101348.81;10215857;29;20059;-79
2023/01/02 14:14:42;;;;;;;2.28;1.40;;;;;;;13.70;56.84;101385.56;10215335;29;20431;-78
2023/01/02 14:19:43;;;;;;;3.08;1.40;;;;;;;13.04;56.96;101274.19;10215599;29;20512;-80
2023/01/02 14:24:50;;;;;;;3.33;1.33;;;;;;;13.06;57.34;101306.91;10215648;29;20098;-81
2023/01/02 14:29:55;;;;;;;2.72;1.20;;;;;;;12.16;57.86;101199.81;10215520;29;20051;-77
2023/01/02 14:34:57;;;;;;;3.00;1.23;;;;;;;13.11;58.41;101371.28;10204051;29;20090;-80
2023/01/02 14:40:22;;;;;;;5.10;1.45;;;;;;;13.17;58.92;101377.81;10194849;29;20057;-82
2023/01/02 14:45:27;;;;;;;2.88;1.30;;;;;;;12.62;59.03;101307.00;10217888;29;20047;-80
2023/01/02 14:50:32;;;;;;;2.78;1.45;;;;;;;12.31;59.81;101288.84;10230845;29;20131;-83
2023/01/02 14:55:37;;;;;;;3.55;1.25;;;;;;;12.54;60.43;101339.78;10214808;29;20134;-80
2023/01/02 15:00:44;;;;;;;3.95;1.25;;;;;;;11.99;60.84;101262.78;10215558;29;20494;-81
2023/01/02 15:06:00;;;;;;;3.78;1.25;;;;;;;12.54;61.05;101374.44;10209911;29;20055;-78
2023/01/02 15:16:41;;;;;;;2.50;1.27;;;;;;;12.36;61.69;101364.81;10209917;29;20098;-80
2023/01/02 15:21:42;;;;;;;3.40;1.60;;;;;;;12.23;61.70;101368.69;10206964;29;20056;-80
2023/01/02 15:26:43;;;;;;;2.63;1.40;;;;;;;11.77;61.76;101300.53;10211132;29;20052;-77
2023/01/02 15:31:59;;;;;;;3.75;1.50;;;;;;;12.30;62.26;101387.59;10206491;29;20175;-81
2023/01/02 15:37:03;;;;;;;2.60;1.30;;;;;;;11.87;61.91;101317.28;10189312;29;20080;-80
2023/01/02 15:45:08;;;;;;;3.33;1.73;;;;;;;11.81;62.18;101309.88;10197342;29;20415;-80
2023/01/02 15:47:29;;;;;;;2.65;1.38;;;;;;;12.26;62.18;101380.88;10205759;29;20055;-78
2023/01/02 15:52:31;;;;;;;3.08;1.60;;;;;;;12.06;61.75;101348.25;10197019;29;20092;-79
2023/01/02 15:57:32;;;;;;;3.45;1.40;;;;;;;11.92;62.07;101330.97;10191020;29;20107;-79
2023/01/02 16:02:40;;;;;;;2.67;1.50;;;;;;;11.90;61.92;101321.47;10206291;29;20840;-80
2023/01/02 16:07:47;;;;;;;3.35;1.40;;;;;;;12.37;61.72;101398.47;10215402;29;20055;-78
2023/01/02 16:12:52;;;;;;;3.90;1.58;;;;;;;12.14;61.88;101348.31;10199365;29;20055;-80
2023/01/02 16:17:54;;;;;;;3.40;1.67;;;;;;;12.21;61.64;101340.56;10204600;29;20531;-79
2023/01/02 16:23:07;;;;;;;3.65;1.73;;;;;;;11.83;60.99;101274.13;10190067;29;20075;-77
2023/01/02 16:28:24;;;;;;;2.53;1.45;;;;;;;12.63;61.07;101410.00;10207534;29;20048;-81
2023/01/02 16:33:29;;;;;;;2.67;1.60;;;;;;;12.63;61.34;101415.31;10209383;29;20062;-79
2023/01/02 16:38:53;;;;;;;3.67;1.77;;;;;;;12.48;61.45;101408.88;10213628;29;20380;-80
2023/01/02 16:43:53;;;;;;;;;;;;;;;12.62;61.08;101418.13;10213809;29;20075;-81
2023/01/02 16:48:56;;;;;;;3.00;1.48;;;;;;;12.43;61.06;101401.34;10217417;29;19928;-81
2023/01/02 16:53:56;;;;;;;3.17;1.63;;;;;;;11.90;61.10;101321.47;10199410;29;20184;-78
2023/01/02 16:58:57;;;;;;;2.45;1.52;;;;;;;12.47;61.42;101420.50;10215362;29;20087;-80
2023/01/02 17:03:59;;;;;;;4.78;1.55;;;;;;;12.04;61.57;101366.19;10195363;29;20052;-79
2023/01/02 17:08:59;;;;;;;4.32;1.63;;;;;;;12.45;61.33;101433.19;10196558;29;20538;-82
2023/01/02 17:14:00;;;;;;;2.75;1.60;;;;;;;11.49;61.60;101291.78;10189437;29;20051;-84
2023/01/02 17:19:01;;;;;;;3.50;1.80;;;;;;;12.22;61.75;101428.28;10205656;29;20062;-80
2023/01/02 17:24:02;;;;;;;6.93;1.58;;;;;;;11.61;62.26;101336.63;10198429;29;20052;-81
2023/01/02 17:29:03;;;;;;;3.08;1.83;;;;;;;10.87;62.72;101241.88;10217543;29;20087;-84
2023/01/02 17:34:04;;;;;;;4.43;1.63;;;;;;;11.94;63.24;101430.19;10216558;29;20420;-82
2023/01/02 17:39:05;;;;;;;3.38;1.73;;;;;;;11.83;63.53;101443.69;10216857;29;20142;-82
2023/01/02 17:44:05;;;;;;;2.83;1.60;;;;;;;11.26;63.77;101363.16;10216029;29;20055;-81
2023/01/02 17:49:06;;;;;;;4.70;1.98;;;;;;;10.87;63.83;101318.97;10215405;29;20435;-82
2023/01/02 17:54:07;;;;;;;2.50;1.65;;;;;;;11.39;64.44;101425.66;10215943;29;20190;-81
2023/01/02 17:59:08;;;;;;;4.35;2.00;;;;;;;11.34;64.51;101446.59;10198033;29;20059;-82
2023/01/02 18:04:09;;;;;;;3.10;1.70;;;;;;;11.05;65.05;101409.44;10213211;29;20059;-82
2023/01/02 18:09:10;;;;;;;4.43;1.75;;;;;;;11.23;65.11;101454.72;10214651;29;20048;-83
2023/01/02 18:14:19;;;;;;;3.65;1.75;;;;;;;11.19;65.64;101456.03;10214974;29;20059;-83
2023/01/02 18:19:23;;;;;;;3.80;1.67;;;;;;;10.96;65.52;101432.41;10212816;29;20092;-84
2023/01/02 18:24:29;;;;;;;3.50;2.00;;;;;;;11.14;65.53;101460.91;10214344;29;20052;-83
2023/01/02 18:29:30;;;;;;;4.90;2.10;;;;;;;10.57;65.79;101377.66;10213711;29;20047;-83
2023/01/02 18:34:33;;;;;;;3.75;1.90;;;;;;;10.65;65.99;101410.53;10212132;29;20058;-84
2023/01/02 18:39:41;;;;;;;3.50;1.92;;;;;;;11.07;65.99;101465.13;10211527;29;20525;-88
2023/01/02 18:44:42;;;;;;;2.28;1.48;;;;;;;10.72;65.48;101395.69;10196814;29;20237;-88
2023/01/02 18:49:46;;;;;;;3.38;1.77;;;;;;;10.64;65.22;101361.00;10213430;29;20048;-87
2023/01/02 18:55:00;;;;;;;6.25;1.90;;;;;;;10.45;65.45;101307.91;10214905;29;20051;-88
2023/01/02 19:00:17;;;;;;;3.17;1.70;;;;;;;11.41;65.06;101466.28;10203790;29;20579;-88
2023/01/02 19:05:44;;;;;;;3.10;1.77;;;;;;;11.23;65.01;101427.31;10194034;29;20106;-87
2023/01/02 19:16:39;;;;;;;2.90;1.55;;;;;;;11.39;65.04;101484.19;10173473;29;20052;-88
2023/01/02 19:21:40;;;;;;;2.72;1.67;;;;;;;11.30;65.11;101482.41;10187811;29;20051;-85
2023/01/02 19:26:44;;;;;;;2.88;1.88;;;;;;;11.22;65.84;101497.41;10175921;29;20544;-89
2023/01/02 19:32:03;;;;;;;4.47;1.75;;;;;;;11.16;65.61;101494.38;10177493;29;20099;-88
2023/01/02 19:37:10;;;;;;;14.63;3.33;;;;;;;9.70;66.43;101270.53;10191902;29;20564;-86
2023/01/02 19:42:18;;;;;;;5.25;2.05;;;;;;;10.49;66.75;101421.72;10167784;29;20044;-86
2023/01/02 19:47:22;;;;;;;3.08;1.92;;;;;;;10.88;67.09;101487.28;10172581;29;20151;-86
2023/01/02 19:52:36;;;;;;;3.58;1.50;;;;;;;9.82;67.00;101348.19;10146444;29;20051;-86
2023/01/02 19:57:37;;;;;;;2.97;1.77;;;;;;;9.40;67.05;101274.13;10156915;29;20056;-84
2023/01/02 20:02:40;;;;;;;4.63;1.92;;;;;;;9.61;67.07;101329.72;10180302;29;20637;-87
2023/01/02 20:07:41;;;;;;;9.25;2.42;;;;;;;9.47;67.15;101354.81;10204940;29;20044;-86
2023/01/02 20:12:42;;;;;;;20.63;6.25;;;;;;;10.27;67.97;101507.84;10211963;29;20062;-86
2023/01/02 20:17:44;;;;;;;20.95;8.15;;;;;;;8.96;67.90;101321.31;10214108;29;20066;-87
2023/01/02 20:22:46;;;;;;;10.25;3.35;;;;;;;9.73;68.54;101479.03;10196991;29;20059;-87
2023/01/02 20:27:46;;;;;;;6.85;2.38;;;;;;;8.94;68.44;101319.75;10213120;29;20043;-84
2023/01/02 20:32:47;;;;;;;4.25;2.30;;;;;;;9.63;68.16;101433.88;10196150;29;20060;-85
2023/01/02 20:37:48;;;;;;;6.00;2.38;;;;;;;10.02;67.90;101464.03;10196763;29;20536;-86
2023/01/02 20:42:49;;;;;;;3.95;2.00;;;;;;;9.99;66.90;101413.88;10214954;29;20067;-85
2023/01/02 20:47:50;;;;;;;3.58;2.17;;;;;;;9.59;66.57;101329.00;10191287;29;20051;-85
2023/01/02 20:52:51;;;;;;;5.10;2.35;;;;;;;10.76;66.51;101523.78;10180027;29;20064;-86
2023/01/02 20:57:52;;;;;;;3.90;2.35;;;;;;;10.04;66.02;101385.06;10155593;29;20084;-85
2023/01/02 21:02:52;;;;;;;5.07;2.33;;;;;;;9.65;65.91;101303.75;10175248;29;20060;-84
2023/01/02 21:07:53;;;;;;;4.28;2.45;;;;;;;10.15;66.31;101404.50;10174358;29;20048;-84
2023/01/02 21:13:06;;;;;;;4.40;2.47;;;;;;;10.43;66.37;101461.28;10174386;29;20501;-85
2023/01/02 21:18:08;;;;;;;3.83;2.15;;;;;;;10.63;66.27;101502.00;10175506;29;20085;-86
2023/01/02 21:23:10;;;;;;;3.70;2.10;;;;;;;9.42;66.80;101334.97;10178157;29;20044;-86
2023/01/02 21:28:15;;;;;;;4.60;2.10;;;;;;;10.11;66.94;101451.75;10165732;29;20059;-86
2023/01/02 21:33:22;;;;;;;3.92;2.03;;;;;;;10.54;66.46;101505.50;10180627;29;20048;-87
2023/01/02 21:38:25;;;;;;;3.53;1.88;;;;;;;9.38;66.33;101311.38;10162763;29;20048;-85
2023/01/02 21:43:26;;;;;;;4.07;2.45;;;;;;;9.94;66.60;101433.81;10179015;29;20500;-85
2023/01/02 21:48:26;;;;;;;5.45;2.55;;;;;;;9.48;67.09;101375.09;10178985;29;20052;-86
2023/01/02 21:53:27;;;;;;;3.92;2.20;;;;;;;9.25;67.35;101368.31;10176508;29;20067;-85
2023/01/02 21:58:28;;;;;;;5.15;2.60;;;;;;;10.13;67.43;101520.63;10176931;29;20444;-86
2023/01/02 22:03:29;;;;;;;4.05;2.20;;;;;;;8.95;67.66;101358.56;10176973;29;20056;-85
2023/01/02 22:08:33;;;;;;;5.30;2.50;;;;;;;9.87;68.20;101512.28;10176278;29;20053;-84
2023/01/02 22:13:33;;;;;;;4.33;2.53;;;;;;;9.28;68.14;101429.03;10160425;29;20056;-85
2023/01/02 22:18:34;;;;;;;6.15;3.35;;;;;;;8.52;68.15;101335.72;10176718;29;20056;-86
2023/01/02 22:23:41;;;;;;;8.43;3.20;;;;;;;8.40;68.71;101334.94;10161296;29;20504;-86
2023/01/02 22:28:44;;;;;;;7.22;3.33;;;;;;;8.46;69.25;101376.81;10175116;29;20094;-84
2023/01/02 22:33:45;;;;;;;6.07;2.88;;;;;;;8.43;69.95;101406.19;10159066;29;20138;-85
2023/01/02 22:38:48;;;;;;;4.13;2.72;;;;;;;8.77;70.50;101483.69;10174802;29;20048;-84
2023/01/02 22:43:50;;;;;;;6.05;2.75;;;;;;;9.02;70.39;101526.69;10175965;29;20055;-84
2023/01/02 22:48:51;;;;;;;5.57;3.25;;;;;;;8.04;70.42;101384.66;10158579;29;20071;-85
2023/01/02 22:53:52;;;;;;;5.50;2.90;;;;;;;8.42;70.61;101444.22;10175616;29;20051;-85
2023/01/02 22:58:53;;;;;;;5.88;2.75;;;;;;;8.91;70.59;101541.69;10158611;29;20060;-85
2023/01/02 23:03:54;;;;;;;5.75;3.00;;;;;;;8.13;70.43;101434.19;10175299;29;20051;-86
2023/01/02 23:08:55;;;;;;;6.75;3.10;;;;;;;8.78;71.05;101543.66;10174552;29;20052;-87
2023/01/02 23:13:55;;;;;;;7.53;3.33;;;;;;;7.40;71.18;101337.00;10174579;29;20059;-87
2023/01/02 23:19:16;;;;;;;10.02;3.05;;;;;;;8.22;71.60;101489.03;10175059;29;20048;-86
2023/01/02 23:24:20;;;;;;;4.32;3.13;;;;;;;7.98;71.98;101480.44;10174997;29;20138;-87
2023/01/02 23:29:23;;;;;;;5.60;3.03;;;;;;;8.14;72.03;101549.69;10157881;29;20493;-87
2023/01/02 23:34:26;;;;;;;5.68;2.88;;;;;;;7.90;72.63;101578.13;10157097;29;20067;-87
2023/01/02 23:39:29;;;;;;;5.22;2.75;;;;;;;7.51;72.86;101538.78;10173514;29;20052;-88
2023/01/02 23:44:30;;;;;;;5.88;3.38;;;;;;;7.16;73.33;101501.84;10173729;29;20512;-87
2023/01/02 23:49:31;;;;;;;5.80;3.42;;;;;;;7.20;73.46;101542.91;10174550;29;20096;-88
2023/01/02 23:54:31;;;;;;;5.90;3.80;;;;;;;6.52;74.05;101456.50;10172563;29;20531;-87
2023/01/02 23:59:32;;;;;;;6.78;3.53;;;;;;;7.26;74.57;101578.63;10156442;29;20055;-87
